Time;durP1;ratioP1;P1;durP2;ratioP2;P2;SDS_P1;SDS_P2;PMS_P1;PMS_P2;Temp;Humidity;BMP_temperature;BMP_pressure;BME280_temperature;BME280_humidity;BME280_pressure;Samples;Min_cycle;Max_cycle;Signal;HPM_P1;HPM_P2
2022/01/10 00:00:07;;;;;;;0.10;0.10;;;;;;;0.20;89.09;101175.72;5035959;28;20532;-75
2022/01/10 00:02:33;;;;;;;0.10;0.10;;;;;;;0.22;89.35;101187.00;5036233;28;20308;-74
2022/01/10 00:04:58;;;;;;;0.00;0.00;;;;;;;0.25;89.28;101183.00;5025076;28;20312;-75
2022/01/10 00:07:24;;;;;;;0.10;0.10;;;;;;;0.30;89.37;101188.50;5036640;28;20025;-74
2022/01/10 00:09:52;;;;;;;0.10;0.10;;;;;;;0.34;89.48;101198.25;5035909;28;20041;-75
2022/01/10 00:12:17;;;;;;;0.00;0.00;;;;;;;0.39;89.41;101196.91;5036265;28;20450;-74
2022/01/10 00:14:43;;;;;;;0.10;0.10;;;;;;;0.45;89.57;101205.91;5026064;28;20272;-75
2022/01/10 00:17:08;;;;;;;0.00;0.00;;;;;;;0.50;89.54;101208.03;5019825;28;20049;-75
2022/01/10 00:19:33;;;;;;;0.10;0.10;;;;;;;0.55;89.49;101208.38;5020508;28;20096;-75
2022/01/10 00:21:59;;;;;;;0.10;0.10;;;;;;;0.58;89.59;101206.03;5019695;28;20029;-74
2022/01/10 00:24:24;;;;;;;0.00;0.00;;;;;;;0.61;89.47;101213.13;5028180;28;20302;-74
2022/01/10 00:26:50;;;;;;;0.00;0.00;;;;;;;0.63;89.37;101224.44;5040637;28;20029;-73
2022/01/10 00:29:15;;;;;;;0.10;0.10;;;;;;;0.62;89.29;101208.03;5040432;28;20047;-74
2022/01/10 00:31:40;;;;;;;0.10;0.10;;;;;;;0.61;89.22;101205.38;5040292;28;20025;-73
2022/01/10 00:34:06;;;;;;;0.10;0.10;;;;;;;0.59;89.28;101212.06;5033945;28;20022;-75
2022/01/10 00:36:31;;;;;;;0.10;0.10;;;;;;;0.57;89.11;101227.44;5020310;28;20022;-75
2022/01/10 00:38:57;;;;;;;0.30;0.30;;;;;;;0.57;89.24;101229.13;5020001;28;20033;-74
2022/01/10 00:41:22;;;;;;;0.00;0.00;;;;;;;0.54;89.23;101225.53;5019374;28;20018;-74
2022/01/10 00:43:50;;;;;;;0.00;0.00;;;;;;;0.54;89.15;101222.97;5020883;28;20168;-75
2022/01/10 00:46:15;;;;;;;0.10;0.10;;;;;;;0.57;89.31;101242.00;5038650;28;20026;-75
2022/01/10 00:48:41;;;;;;;0.00;0.00;;;;;;;0.58;89.45;101243.78;5038763;28;20702;-75
2022/01/10 00:51:06;;;;;;;0.00;0.00;;;;;;;0.61;89.49;101254.34;5039786;28;20025;-76
2022/01/10 00:53:31;;;;;;;0.10;0.10;;;;;;;0.63;89.56;101248.50;5039174;28;20100;-74
2022/01/10 00:55:57;;;;;;;0.10;0.10;;;;;;;0.65;89.45;101252.13;5030568;28;20029;-74
2022/01/10 00:58:23;;;;;;;0.00;0.00;;;;;;;0.69;89.48;101268.72;5030275;28;20115;-74
2022/01/10 01:00:48;;;;;;;0.10;0.10;;;;;;;0.72;89.62;101276.66;5026769;28;20028;-73
2022/01/10 01:03:14;;;;;;;0.00;0.00;;;;;;;0.77;89.64;101277.00;5022029;28;20028;-74
2022/01/10 01:05:43;;;;;;;0.10;0.10;;;;;;;0.82;89.84;101280.84;5026322;28;20076;-73
2022/01/10 01:08:11;;;;;;;0.00;0.00;;;;;;;0.85;89.65;101290.50;5021450;28;20040;-75
2022/01/10 01:13:49;;;;;;;0.00;0.00;;;;;;;0.93;89.68;101289.38;5039141;28;20544;-74
2022/01/10 01:24:09;;;;;;;0.10;0.10;;;;;;;1.06;89.51;101291.19;5029962;28;20281;-74
2022/01/10 01:26:43;;;;;;;0.10;0.10;;;;;;;1.06;89.83;101286.91;5019284;28;20539;-74
2022/01/10 01:29:11;;;;;;;0.00;0.00;;;;;;;1.13;89.72;101289.94;5018697;28;20096;-73
2022/01/10 01:31:37;;;;;;;0.00;0.00;;;;;;;1.18;89.62;101301.53;5020795;28;20358;-75
2022/01/10 01:34:03;;;;;;;0.10;0.10;;;;;;;1.20;89.64;101295.66;5019509;28;20380;-74
2022/01/10 01:36:30;;;;;;;0.00;0.00;;;;;;;1.21;89.48;101299.16;5019563;28;20068;-73
2022/01/10 01:38:56;;;;;;;0.00;0.00;;;;;;;1.23;89.80;101308.81;5020546;28;20034;-72
2022/01/10 01:43:57;;;;;;;0.03;0.03;;;;;;;1.25;89.57;101318.34;5039319;28;20313;-73
2022/01/10 01:46:23;;;;;;;0.00;0.00;;;;;;;1.24;89.49;101314.84;5039468;28;20627;-74
2022/01/10 01:48:50;;;;;;;0.10;0.10;;;;;;;1.25;89.42;101333.81;5038598;28;20312;-74
2022/01/10 01:51:17;;;;;;;0.10;0.10;;;;;;;1.23;89.41;101325.97;5038787;28;20274;-73
2022/01/10 01:53:44;;;;;;;0.10;0.10;;;;;;;1.20;89.54;101328.31;5034820;28;20264;-73
2022/01/10 01:56:10;;;;;;;0.10;0.10;;;;;;;1.17;89.21;101339.31;5018915;28;20277;-74
2022/01/10 01:58:38;;;;;;;0.10;0.10;;;;;;;1.14;89.17;101345.91;5019096;28;20603;-74
2022/01/10 02:01:05;;;;;;;0.07;0.07;;;;;;;1.09;89.18;101356.81;5018798;28;20512;-74
2022/01/10 02:03:33;;;;;;;0.07;0.07;;;;;;;1.05;89.14;101364.22;5036776;28;20321;-74
2022/01/10 02:06:01;;;;;;;0.10;0.10;;;;;;;1.02;89.19;101367.44;5038419;28;20689;-73
2022/01/10 02:08:27;;;;;;;0.00;0.00;;;;;;;0.98;89.17;101370.56;5037266;28;20296;-75
2022/01/10 02:10:52;;;;;;;0.10;0.10;;;;;;;0.95;89.17;101378.97;5038256;28;20345;-74
2022/01/10 02:13:18;;;;;;;0.10;0.10;;;;;;;0.90;89.08;101370.00;5037214;28;20347;-74
2022/01/10 02:15:49;;;;;;;0.10;0.10;;;;;;;0.89;89.20;101377.59;5017871;28;20105;-74
2022/01/10 02:18:18;;;;;;;0.13;0.13;;;;;;;0.85;89.49;101388.50;5017812;28;20029;-74
2022/01/10 02:20:45;;;;;;;0.03;0.03;;;;;;;0.79;89.32;101388.88;5018758;28;20663;-74
2022/01/10 02:23:11;;;;;;;0.17;0.17;;;;;;;0.74;89.25;101385.97;5033357;28;20450;-73
2022/01/10 02:25:36;;;;;;;0.10;0.10;;;;;;;0.72;89.32;101384.94;5038332;28;20276;-74
2022/01/10 02:28:02;;;;;;;0.10;0.10;;;;;;;0.68;89.37;101399.28;5038515;28;20700;-73
2022/01/10 02:30:27;;;;;;;0.10;0.10;;;;;;;0.66;89.36;101399.94;5038044;28;20045;-74
2022/01/10 02:32:56;;;;;;;0.53;0.53;;;;;;;0.67;89.57;101415.53;5037322;28;20045;-75
2022/01/10 02:35:27;;;;;;;0.10;0.10;;;;;;;0.72;89.63;101421.03;5038350;28;20112;-73
2022/01/10 02:37:55;;;;;;;0.00;0.00;;;;;;;0.76;89.62;101425.63;5037854;28;20276;-73
2022/01/10 02:40:22;;;;;;;0.10;0.10;;;;;;;0.79;89.62;101425.91;5018409;28;20527;-73
2022/01/10 02:42:48;;;;;;;0.10;0.10;;;;;;;0.80;89.85;101435.44;5018306;28;20300;-74
2022/01/10 02:45:14;;;;;;;0.00;0.00;;;;;;;0.82;89.79;101443.28;5019327;28;20667;-74
2022/01/10 02:47:40;;;;;;;0.00;0.00;;;;;;;0.83;89.79;101445.09;5017838;28;20101;-74
2022/01/10 02:50:06;;;;;;;0.10;0.10;;;;;;;0.84;89.84;101439.16;5018655;28;20419;-74
2022/01/10 02:52:31;;;;;;;0.00;0.00;;;;;;;0.88;89.69;101450.59;5018270;28;20036;-73
2022/01/10 02:55:01;;;;;;;0.10;0.10;;;;;;;0.88;89.72;101448.91;5018474;28;20034;-73
2022/01/10 02:57:28;;;;;;;0.10;0.10;;;;;;;0.89;89.91;101458.47;5018457;28;20037;-73
2022/01/10 02:59:53;;;;;;;0.10;0.10;;;;;;;0.92;89.86;101455.19;5032425;28;20291;-74
2022/01/10 03:02:21;;;;;;;0.10;0.10;;;;;;;0.94;89.83;101463.97;5037572;28;20280;-74
2022/01/10 03:04:47;;;;;;;0.00;0.00;;;;;;;0.96;90.07;101455.56;5037855;28;20415;-74
2022/01/10 03:07:16;;;;;;;0.00;0.00;;;;;;;0.98;89.89;101471.16;5037736;28;20283;-73
2022/01/10 03:09:42;;;;;;;0.00;0.00;;;;;;;1.00;89.86;101471.28;5034707;28;20041;-74
2022/01/10 03:12:09;;;;;;;0.10;0.10;;;;;;;1.02;89.87;101470.63;5037619;28;20380;-73
2022/01/10 03:14:38;;;;;;;0.10;0.10;;;;;;;1.04;89.88;101469.06;5038703;28;20029;-74
2022/01/10 03:17:03;;;;;;;0.00;0.00;;;;;;;1.07;89.94;101469.28;5037310;28;20511;-73
2022/01/10 03:19:29;;;;;;;0.00;0.00;;;;;;;1.10;89.95;101471.19;5036873;28;20358;-73
2022/01/10 03:21:54;;;;;;;0.10;0.10;;;;;;;1.14;89.92;101481.00;5037537;28;20029;-73
2022/01/10 03:24:19;;;;;;;0.00;0.00;;;;;;;1.17;89.51;101490.66;5037859;28;20295;-73
2022/01/10 03:26:45;;;;;;;0.00;0.00;;;;;;;1.19;89.57;101500.28;5037874;28;20045;-75
2022/01/10 03:29:11;;;;;;;0.00;0.00;;;;;;;1.22;90.03;101502.19;5028936;28;20057;-73
2022/01/10 03:31:36;;;;;;;0.00;0.00;;;;;;;1.24;89.86;101513.53;5017949;28;20030;-74
2022/01/10 03:34:02;;;;;;;0.00;0.00;;;;;;;1.27;89.90;101518.03;5017663;28;20040;-73
2022/01/10 03:36:27;;;;;;;0.10;0.10;;;;;;;1.30;89.88;101514.00;5017323;28;20277;-73
2022/01/10 03:38:53;;;;;;;0.10;0.10;;;;;;;1.32;89.98;101520.19;5023510;28;20049;-74
2022/01/10 03:41:18;;;;;;;0.00;0.00;;;;;;;1.33;89.91;101527.19;5038238;28;20021;-73
2022/01/10 03:43:43;;;;;;;0.03;0.03;;;;;;;1.35;89.65;101533.34;5037036;28;20025;-73
2022/01/10 03:46:12;;;;;;;0.07;0.07;;;;;;;1.36;89.89;101535.13;5037719;28;20448;-74
2022/01/10 03:48:38;;;;;;;0.00;0.00;;;;;;;1.39;89.92;101537.06;5033319;28;20141;-74
2022/01/10 03:51:03;;;;;;;0.07;0.07;;;;;;;1.42;89.79;101544.16;5021390;28;20699;-73
2022/01/10 03:53:29;;;;;;;0.10;0.10;;;;;;;1.43;89.94;101540.78;5024541;28;20301;-75
2022/01/10 03:55:54;;;;;;;0.10;0.10;;;;;;;1.43;89.72;101549.41;5021873;28;20048;-76
2022/01/10 03:58:20;;;;;;;0.10;0.10;;;;;;;1.45;89.50;101545.28;5022900;28;20030;-74
2022/01/10 04:00:45;;;;;;;0.10;0.10;;;;;;;1.48;89.80;101539.44;5039749;28;20037;-73
2022/01/10 04:03:11;;;;;;;0.00;0.00;;;;;;;1.48;89.83;101544.59;5040966;28;20065;-73
2022/01/10 04:05:36;;;;;;;0.10;0.10;;;;;;;1.49;89.95;101546.38;5041140;28;20021;-73
2022/01/10 04:08:02;;;;;;;0.10;0.10;;;;;;;1.51;89.90;101557.75;5040944;28;20091;-73
2022/01/10 04:10:28;;;;;;;0.10;0.10;;;;;;;1.53;89.92;101557.84;5039458;28;20276;-73
2022/01/10 04:12:53;;;;;;;0.10;0.10;;;;;;;1.55;89.86;101558.88;5040673;28;20325;-74
2022/01/10 04:15:18;;;;;;;0.10;0.10;;;;;;;1.56;89.61;101556.41;5041071;28;20060;-74
2022/01/10 04:17:44;;;;;;;0.10;0.10;;;;;;;1.58;89.74;101565.19;5040386;28;20040;-73
2022/01/10 04:20:10;;;;;;;0.10;0.10;;;;;;;1.59;89.34;101561.81;5039345;28;20105;-74
2022/01/10 04:22:35;;;;;;;0.20;0.20;;;;;;;1.59;89.69;101561.81;5040394;28;20115;-74
2022/01/10 04:25:00;;;;;;;0.10;0.10;;;;;;;1.62;89.67;101568.91;5040860;28;20033;-74
2022/01/10 04:27:31;;;;;;;0.00;0.00;;;;;;;1.64;89.66;101577.66;5040776;28;20021;-74
2022/01/10 04:29:57;;;;;;;0.20;0.20;;;;;;;1.70;90.06;101595.31;5026283;28;20026;-74
2022/01/10 04:32:23;;;;;;;0.10;0.10;;;;;;;1.76;89.78;101598.34;5020201;28;20309;-75
2022/01/10 04:34:51;;;;;;;0.10;0.10;;;;;;;1.84;90.10;101598.91;5020813;28;20076;-74
2022/01/10 04:37:17;;;;;;;0.10;0.10;;;;;;;1.84;89.84;101591.19;5020693;28;20026;-74
2022/01/10 04:39:42;;;;;;;0.10;0.10;;;;;;;1.83;89.76;101608.38;5031723;28;20284;-74
2022/01/10 04:42:07;;;;;;;0.00;0.00;;;;;;;1.84;89.62;101610.16;5040563;28;20042;-75
2022/01/10 04:44:33;;;;;;;0.00;0.00;;;;;;;1.84;89.66;101623.09;5040165;28;20036;-73
2022/01/10 04:46:58;;;;;;;0.20;0.20;;;;;;;1.84;89.52;101630.84;5039792;28;20029;-74
2022/01/10 04:49:26;;;;;;;0.00;0.00;;;;;;;1.85;89.67;101626.53;5038363;28;20340;-74
2022/01/10 04:51:52;;;;;;;0.10;0.10;;;;;;;1.83;89.49;101639.38;5040615;28;20033;-73
2022/01/10 04:54:18;;;;;;;0.00;0.00;;;;;;;1.83;89.36;101638.47;5040254;28;20291;-75
2022/01/10 04:56:44;;;;;;;0.20;0.20;;;;;;;1.81;89.59;101645.19;5039348;28;20025;-73
2022/01/10 04:59:10;;;;;;;0.10;0.10;;;;;;;1.80;89.46;101651.16;5032552;28;20591;-73
2022/01/10 05:01:36;;;;;;;0.00;0.00;;;;;;;1.75;89.37;101658.53;5018736;28;20040;-73
2022/01/10 05:04:02;;;;;;;0.00;0.00;;;;;;;1.74;89.62;101659.31;5018687;28;20356;-72
2022/01/10 05:06:27;;;;;;;0.13;0.13;;;;;;;1.72;89.55;101660.88;5033451;28;20284;-73
2022/01/10 05:08:52;;;;;;;0.30;0.30;;;;;;;1.69;89.64;101666.72;5039169;28;20294;-72
2022/01/10 05:11:19;;;;;;;0.00;0.00;;;;;;;1.66;89.58;101660.41;5038873;28;20276;-74
2022/01/10 05:13:45;;;;;;;0.00;0.00;;;;;;;1.62;89.39;101667.03;5039321;28;20101;-74
2022/01/10 05:16:10;;;;;;;0.07;0.07;;;;;;;1.60;89.87;101672.06;5039706;28;20272;-73
2022/01/10 05:18:38;;;;;;;0.00;0.00;;;;;;;1.57;89.51;101660.59;5037648;28;20029;-73
2022/01/10 05:21:03;;;;;;;0.10;0.10;;;;;;;1.54;89.54;101676.72;5019370;28;20030;-73
2022/01/10 05:23:29;;;;;;;0.00;0.00;;;;;;;1.52;89.55;101680.88;5018861;28;20287;-73
2022/01/10 05:25:54;;;;;;;0.10;0.10;;;;;;;1.51;89.84;101692.88;5020361;28;20108;-75
2022/01/10 05:28:20;;;;;;;0.20;0.20;;;;;;;1.51;89.64;101698.03;5018652;28;20034;-73
2022/01/10 05:30:46;;;;;;;0.10;0.10;;;;;;;1.51;89.61;101699.75;5019769;28;20036;-74
2022/01/10 05:33:13;;;;;;;0.00;0.00;;;;;;;1.51;89.71;101712.66;5018654;28;20057;-73
2022/01/10 05:35:39;;;;;;;0.10;0.10;;;;;;;1.53;89.84;101711.06;5018669;28;20296;-73
2022/01/10 05:38:05;;;;;;;0.10;0.10;;;;;;;1.55;89.63;101711.22;5039385;28;20354;-72
2022/01/10 05:40:30;;;;;;;0.00;0.00;;;;;;;1.55;89.84;101722.41;5038389;28;20053;-73
2022/01/10 05:42:56;;;;;;;0.00;0.00;;;;;;;1.61;89.97;101742.66;5039104;28;20030;-74
2022/01/10 05:45:21;;;;;;;0.00;0.00;;;;;;;1.66;90.05;101733.59;5039545;28;20051;-71
2022/01/10 05:47:47;;;;;;;0.30;0.30;;;;;;;1.68;90.07;101737.19;5020468;28;20038;-74
2022/01/10 05:50:17;;;;;;;0.10;0.10;;;;;;;1.69;90.13;101744.19;5019441;28;20044;-72
2022/01/10 05:52:42;;;;;;;0.00;0.00;;;;;;;1.69;90.18;101743.28;5018567;28;20037;-72
2022/01/10 05:55:08;;;;;;;0.00;0.00;;;;;;;1.69;89.93;101744.19;5018326;28;20335;-73
2022/01/10 05:57:34;;;;;;;0.10;0.10;;;;;;;1.71;89.88;101749.47;5035025;28;20254;-73
2022/01/10 05:59:59;;;;;;;0.00;0.00;;;;;;;1.71;89.87;101754.63;5038508;28;20022;-73
2022/01/10 06:02:25;;;;;;;0.03;0.03;;;;;;;1.71;90.12;101763.28;5038560;28;20034;-74
2022/01/10 06:04:50;;;;;;;0.00;0.00;;;;;;;1.71;90.02;101760.69;5038233;28;20082;-72
2022/01/10 06:07:16;;;;;;;0.10;0.10;;;;;;;1.71;89.81;101770.13;5038715;28;20109;-73
2022/01/10 06:09:41;;;;;;;0.03;0.03;;;;;;;1.71;89.72;101775.28;5033847;28;20060;-73
2022/01/10 06:12:07;;;;;;;0.10;0.10;;;;;;;1.70;89.96;101769.22;5027014;28;20026;-73
2022/01/10 06:14:32;;;;;;;0.10;0.10;;;;;;;1.72;89.48;101774.50;5028441;28;20025;-73
2022/01/10 06:16:57;;;;;;;0.10;0.10;;;;;;;1.71;89.90;101786.53;5025543;28;20057;-72
2022/01/10 06:19:23;;;;;;;0.53;0.53;;;;;;;1.71;89.90;101791.69;5026499;28;20265;-73
2022/01/10 06:21:48;;;;;;;0.00;0.00;;;;;;;1.72;89.87;101790.91;5024087;28;20079;-74
2022/01/10 06:24:14;;;;;;;0.10;0.10;;;;;;;1.74;89.83;101793.63;5025798;28;20033;-73
2022/01/10 06:26:39;;;;;;;0.30;0.30;;;;;;;1.74;89.97;101799.66;5031347;28;20025;-72
2022/01/10 06:29:04;;;;;;;0.10;0.10;;;;;;;1.75;89.89;101811.81;5018397;28;20033;-73
2022/01/10 06:31:30;;;;;;;0.10;0.10;;;;;;;1.74;89.90;101811.69;5018486;28;20030;-73
2022/01/10 06:33:55;;;;;;;0.10;0.10;;;;;;;1.76;89.90;101818.75;5033115;28;20101;-74
2022/01/10 06:36:21;;;;;;;0.10;0.10;;;;;;;1.78;89.86;101822.41;5028887;28;20080;-72
2022/01/10 06:38:47;;;;;;;0.00;0.00;;;;;;;1.80;89.88;101827.66;5018803;28;20057;-74
2022/01/10 06:41:12;;;;;;;0.10;0.10;;;;;;;1.81;90.08;101828.56;5038144;28;20044;-73
2022/01/10 06:43:39;;;;;;;0.20;0.20;;;;;;;1.80;89.78;101832.81;5043017;28;20036;-73
2022/01/10 06:46:05;;;;;;;0.00;0.00;;;;;;;1.81;89.81;101834.63;5041438;28;20380;-73
2022/01/10 06:48:30;;;;;;;0.10;0.10;;;;;;;1.83;89.71;101843.44;5039121;28;20291;-74
2022/01/10 06:50:56;;;;;;;0.00;0.00;;;;;;;1.84;89.82;101849.47;5045362;28;20028;-73
2022/01/10 06:53:21;;;;;;;0.17;0.17;;;;;;;1.85;89.90;101851.28;5052251;28;20390;-74
2022/01/10 06:55:47;;;;;;;0.00;0.00;;;;;;;1.85;90.50;101859.94;5036484;28;20033;-73
2022/01/10 06:58:13;;;;;;;0.00;0.00;;;;;;;1.86;90.05;101860.84;5034410;28;20030;-74
2022/01/10 07:00:39;;;;;;;0.10;0.10;;;;;;;1.87;90.02;101880.75;5035933;28;20029;-72
2022/01/10 07:03:04;;;;;;;0.10;0.10;;;;;;;1.88;89.94;101875.66;5035606;28;20025;-73
2022/01/10 07:05:30;;;;;;;0.10;0.10;;;;;;;1.90;90.04;101879.31;5036059;28;20333;-73
2022/01/10 07:07:55;;;;;;;0.10;0.10;;;;;;;1.92;89.98;101882.00;5036974;28;20080;-73
2022/01/10 07:10:21;;;;;;;0.10;0.10;;;;;;;1.95;89.97;101894.25;5036353;28;20017;-73
2022/01/10 07:12:46;;;;;;;0.10;0.10;;;;;;;1.96;90.00;101898.63;5036507;28;20049;-74
2022/01/10 07:15:12;;;;;;;0.00;0.00;;;;;;;1.97;89.96;101903.94;5036333;28;20407;-73
2022/01/10 07:17:37;;;;;;;0.00;0.00;;;;;;;1.98;89.88;101910.03;5021443;28;20057;-73
2022/01/10 07:20:03;;;;;;;0.10;0.10;;;;;;;2.00;89.89;101913.63;5019471;28;20030;-74
2022/01/10 07:22:28;;;;;;;0.00;0.00;;;;;;;2.01;89.88;101926.69;5037036;28;20441;-73
2022/01/10 07:24:54;;;;;;;0.10;0.10;;;;;;;2.02;89.98;101924.97;5035589;28;20277;-74
2022/01/10 07:27:19;;;;;;;0.00;0.00;;;;;;;2.03;89.93;101931.94;5037181;28;20026;-74
2022/01/10 07:29:46;;;;;;;0.00;0.00;;;;;;;2.06;89.91;101940.84;5037201;28;20030;-74
2022/01/10 07:32:12;;;;;;;0.00;0.00;;;;;;;2.10;89.98;101943.69;5035597;28;20104;-74
2022/01/10 07:34:38;;;;;;;0.00;0.00;;;;;;;2.12;90.11;101955.94;5031874;28;20437;-73
2022/01/10 07:37:03;;;;;;;0.00;0.00;;;;;;;2.16;89.72;101958.00;5030183;28;20494;-73
2022/01/10 07:39:29;;;;;;;0.20;0.20;;;;;;;2.20;90.20;101966.91;5036213;28;20347;-73
2022/01/10 07:41:54;;;;;;;0.10;0.10;;;;;;;2.22;89.97;101970.50;5037115;28;20029;-73
2022/01/10 07:44:19;;;;;;;0.10;0.10;;;;;;;2.24;89.81;101981.00;5021484;28;20057;-75
2022/01/10 07:46:45;;;;;;;0.10;0.10;;;;;;;2.24;89.84;101984.47;5019613;28;20041;-73
2022/01/10 07:49:10;;;;;;;0.10;0.10;;;;;;;2.27;89.80;101992.47;5023125;28;20076;-73
2022/01/10 07:51:35;;;;;;;0.20;0.20;;;;;;;2.28;89.79;101998.53;5023332;28;20029;-73
2022/01/10 07:54:01;;;;;;;0.10;0.10;;;;;;;2.29;89.42;101998.66;5036188;28;20032;-74
2022/01/10 07:56:27;;;;;;;0.10;0.10;;;;;;;2.30;89.56;102003.06;5036482;28;20144;-73
2022/01/10 07:58:52;;;;;;;0.20;0.20;;;;;;;2.32;89.61;102008.34;5037191;28;20028;-74
2022/01/10 08:01:20;;;;;;;0.03;0.03;;;;;;;2.33;89.60;102012.75;5037038;28;20343;-73
2022/01/10 08:03:47;;;;;;;0.10;0.10;;;;;;;2.33;89.54;102017.91;5035677;28;20053;-74
2022/01/10 08:06:12;;;;;;;0.00;0.00;;;;;;;2.33;89.29;102023.09;5034172;28;20038;-73
2022/01/10 08:08:38;;;;;;;0.00;0.00;;;;;;;2.36;89.66;102025.91;5019514;28;20450;-74
2022/01/10 08:11:03;;;;;;;0.10;0.10;;;;;;;2.37;89.30;102027.72;5028503;28;20379;-74
2022/01/10 08:13:29;;;;;;;0.10;0.10;;;;;;;2.37;89.76;102027.72;5016883;28;20270;-75
2022/01/10 08:15:54;;;;;;;0.10;0.10;;;;;;;2.39;89.41;102030.44;5031404;28;20022;-73
2022/01/10 08:18:20;;;;;;;0.00;0.00;;;;;;;2.46;89.87;102041.41;5034274;28;20448;-73
2022/01/10 08:20:45;;;;;;;0.10;0.10;;;;;;;2.52;89.51;102046.16;5036681;28;20376;-74
2022/01/10 08:23:12;;;;;;;0.00;0.00;;;;;;;2.53;89.31;102053.13;5035989;28;20036;-74
2022/01/10 08:25:38;;;;;;;0.10;0.10;;;;;;;2.53;88.87;102059.97;5035333;28;20053;-74
2022/01/10 08:28:04;;;;;;;0.43;0.43;;;;;;;2.55;89.22;102063.59;5019012;28;20327;-75
2022/01/10 08:30:30;;;;;;;0.20;0.20;;;;;;;2.57;89.16;102060.34;5031072;28;20050;-74
2022/01/10 08:32:55;;;;;;;0.20;0.20;;;;;;;2.59;89.27;102069.16;4999498;28;20084;-73
2022/01/10 08:35:20;;;;;;;0.17;0.17;;;;;;;2.61;89.31;102072.75;5025495;28;20088;-73
2022/01/10 08:37:46;;;;;;;0.10;0.10;;;;;;;2.64;89.25;102077.28;5033652;28;20418;-73
2022/01/10 08:40:12;;;;;;;0.10;0.10;;;;;;;2.69;89.13;102081.13;5038371;28;20029;-73
2022/01/10 08:42:38;;;;;;;0.10;0.10;;;;;;;2.72;89.06;102085.63;5022664;28;20026;-73
2022/01/10 08:45:05;;;;;;;0.00;0.00;;;;;;;2.76;89.03;102090.28;5031186;28;20386;-74
2022/01/10 08:47:30;;;;;;;0.20;0.20;;;;;;;2.80;89.19;102087.16;5036451;28;20073;-73
2022/01/10 08:49:56;;;;;;;0.10;0.10;;;;;;;2.82;88.86;102088.22;5032383;28;20065;-73
2022/01/10 08:52:21;;;;;;;0.10;0.10;;;;;;;2.84;88.57;102090.88;5035753;28;20348;-73
2022/01/10 08:54:50;;;;;;;0.00;0.00;;;;;;;2.85;88.49;102096.19;5030778;28;20075;-74
2022/01/10 08:57:17;;;;;;;0.10;0.10;;;;;;;2.89;88.42;102098.22;5032130;28;20384;-73
2022/01/10 08:59:43;;;;;;;0.03;0.03;;;;;;;2.95;88.70;102108.19;5038822;28;20407;-73
2022/01/10 09:02:08;;;;;;;0.00;0.00;;;;;;;2.98;88.51;102108.44;5038469;28;20075;-73
2022/01/10 09:04:34;;;;;;;0.10;0.10;;;;;;;3.01;88.60;102105.19;5039179;28;20104;-73
2022/01/10 09:07:02;;;;;;;0.20;0.20;;;;;;;3.05;88.41;102109.81;5035320;28;20410;-73
2022/01/10 09:09:27;;;;;;;0.03;0.03;;;;;;;3.07;88.41;102116.03;5035301;28;20076;-73
2022/01/10 09:11:53;;;;;;;0.10;0.10;;;;;;;3.10;88.19;102115.34;5039211;28;20064;-73
2022/01/10 09:14:22;;;;;;;0.20;0.20;;;;;;;3.13;88.15;102124.25;5038478;28;20128;-73
2022/01/10 09:16:47;;;;;;;0.10;0.10;;;;;;;3.17;88.24;102130.59;5037622;28;20025;-73
2022/01/10 09:19:13;;;;;;;0.10;0.10;;;;;;;3.21;88.65;102132.66;5034070;28;20284;-73
2022/01/10 09:21:38;;;;;;;0.10;0.10;;;;;;;3.24;87.98;102132.00;5026167;28;20290;-73
2022/01/10 09:24:04;;;;;;;0.10;0.10;;;;;;;3.26;88.00;102140.78;5037474;28;20116;-72
2022/01/10 09:26:30;;;;;;;0.20;0.20;;;;;;;3.30;88.04;102138.56;5030663;28;20068;-73
2022/01/10 09:28:55;;;;;;;0.30;0.30;;;;;;;3.34;87.90;102141.38;5035668;28;20331;-73
2022/01/10 09:31:24;;;;;;;0.30;0.30;;;;;;;3.36;87.53;102143.31;5035203;28;20313;-73
2022/01/10 09:33:54;;;;;;;0.30;0.30;;;;;;;3.39;87.63;102155.59;5022373;28;20400;-73
2022/01/10 09:36:22;;;;;;;0.20;0.20;;;;;;;3.46;87.56;102159.56;5038739;28;20026;-72
2022/01/10 09:38:47;;;;;;;0.10;0.10;;;;;;;3.47;87.45;102157.09;5035330;28;20117;-72
2022/01/10 09:41:13;;;;;;;0.10;0.10;;;;;;;3.51;87.24;102163.41;5035564;28;20418;-73
2022/01/10 09:43:38;;;;;;;0.20;0.20;;;;;;;3.55;87.10;102176.72;5038892;28;20112;-75
2022/01/10 09:46:08;;;;;;;0.33;0.33;;;;;;;3.60;86.97;102173.63;5038049;28;20040;-73
2022/01/10 09:48:33;;;;;;;0.20;0.20;;;;;;;3.64;87.05;102184.34;5021935;28;20032;-73
2022/01/10 09:50:59;;;;;;;0.20;0.20;;;;;;;3.68;87.02;102185.47;5039107;28;20367;-72
2022/01/10 09:53:24;;;;;;;0.20;0.20;;;;;;;3.72;86.89;102195.28;5039173;28;20088;-72
2022/01/10 09:55:50;;;;;;;0.20;0.20;;;;;;;3.80;86.76;102194.19;5037994;28;20349;-73
2022/01/10 09:58:15;;;;;;;0.20;0.20;;;;;;;3.86;86.21;102201.53;5037760;28;20404;-74
2022/01/10 10:00:41;;;;;;;0.50;0.50;;;;;;;3.91;86.01;102204.50;5038637;28;20021;-73
2022/01/10 10:03:06;;;;;;;0.13;0.13;;;;;;;3.96;85.38;102211.84;5034647;28;20030;-73
2022/01/10 10:05:32;;;;;;;0.23;0.23;;;;;;;4.04;85.80;102214.13;5037339;28;20057;-72
2022/01/10 10:07:57;;;;;;;0.20;0.20;;;;;;;4.15;85.81;102209.75;5038700;28;20361;-73
2022/01/10 10:10:23;;;;;;;0.40;0.40;;;;;;;4.17;85.16;102224.63;5021566;28;20081;-74
2022/01/10 10:12:50;;;;;;;0.33;0.33;;;;;;;4.20;85.02;102222.28;5034022;28;20034;-73
2022/01/10 10:15:19;;;;;;;0.67;0.67;;;;;;;4.20;84.74;102232.66;5034312;28;20025;-74
2022/01/10 10:17:45;;;;;;;0.30;0.30;;;;;;;4.19;84.78;102240.31;5030120;28;20116;-73
2022/01/10 10:20:12;;;;;;;0.30;0.30;;;;;;;4.17;84.05;102250.56;5017025;28;20037;-72
2022/01/10 10:22:41;;;;;;;0.33;0.33;;;;;;;4.15;83.59;102251.22;5035354;28;20499;-73
2022/01/10 10:25:08;;;;;;;0.40;0.40;;;;;;;4.15;83.99;102253.81;5037645;28;20021;-73
2022/01/10 10:27:39;;;;;;;0.40;0.40;;;;;;;4.10;84.45;102262.16;5037118;28;20112;-74
2022/01/10 10:30:11;;;;;;;0.30;0.30;;;;;;;4.10;84.02;102269.94;5037772;28;20416;-73
2022/01/10 10:32:37;;;;;;;0.17;0.17;;;;;;;4.04;83.82;102268.56;5036880;28;20104;-74
2022/01/10 10:35:07;;;;;;;0.30;0.30;;;;;;;3.99;84.42;102263.03;5038365;28;20073;-73
2022/01/10 10:37:36;;;;;;;0.20;0.20;;;;;;;3.95;84.62;102263.56;5038200;28;20372;-74
2022/01/10 10:40:05;;;;;;;0.50;0.50;;;;;;;3.93;84.52;102270.31;5037510;28;20356;-73
2022/01/10 10:42:32;;;;;;;0.10;0.10;;;;;;;3.88;84.83;102282.91;5037601;28;20041;-73
2022/01/10 10:44:57;;;;;;;0.20;0.20;;;;;;;3.85;85.37;102273.22;5035828;28;20065;-73
2022/01/10 10:47:27;;;;;;;0.30;0.30;;;;;;;3.84;85.42;102281.78;5035623;28;20077;-72
2022/01/10 10:49:57;;;;;;;0.30;0.30;;;;;;;3.82;85.59;102283.34;5037792;28;20033;-74
2022/01/10 10:52:22;;;;;;;0.23;0.23;;;;;;;3.82;85.51;102291.13;5037425;28;20041;-73
2022/01/10 10:54:48;;;;;;;0.30;0.30;;;;;;;3.85;85.62;102304.31;5035755;28;20040;-73
2022/01/10 10:57:14;;;;;;;0.30;0.30;;;;;;;3.87;85.35;102296.66;5034458;28;20041;-73
2022/01/10 10:59:43;;;;;;;0.20;0.20;;;;;;;3.91;85.49;102308.19;5026584;28;20060;-74
2022/01/10 11:02:09;;;;;;;0.40;0.40;;;;;;;3.94;85.69;102301.53;5035659;28;20025;-73
2022/01/10 11:04:35;;;;;;;0.30;0.30;;;;;;;4.00;85.33;102316.69;5036986;28;20025;-72
2022/01/10 11:07:00;;;;;;;0.47;0.47;;;;;;;4.05;85.07;102312.72;5034218;28;20040;-73
2022/01/10 11:09:26;;;;;;;0.20;0.20;;;;;;;4.12;85.13;102317.63;5037110;28;20029;-73
2022/01/10 11:11:52;;;;;;;0.30;0.30;;;;;;;4.21;85.05;102320.03;5036368;28;20155;-72
2022/01/10 11:14:21;;;;;;;0.30;0.30;;;;;;;4.28;84.75;102313.63;5036875;28;20056;-74
2022/01/10 11:16:46;;;;;;;0.27;0.27;;;;;;;4.36;84.41;102317.72;5007181;28;20033;-73
2022/01/10 11:19:25;;;;;;;0.47;0.47;;;;;;;4.44;83.89;102330.38;5034616;28;20367;-73
2022/01/10 11:22:06;;;;;;;0.20;0.20;;;;;;;4.55;84.49;102332.13;5035957;28;20351;-74
2022/01/10 11:24:50;;;;;;;0.40;0.40;;;;;;;4.66;83.73;102332.94;5031048;28;20053;-72
2022/01/10 11:27:32;;;;;;;0.30;0.30;;;;;;;4.69;83.18;102340.97;5021759;28;20035;-76
2022/01/10 11:29:58;;;;;;;0.30;0.30;;;;;;;4.75;83.43;102343.13;5036994;28;20021;-73
2022/01/10 11:33:07;;;;;;;0.40;0.40;;;;;;;4.81;83.29;102349.69;5036239;28;20029;-73
2022/01/10 11:35:38;;;;;;;0.30;0.30;;;;;;;4.90;82.76;102353.75;5033819;28;20025;-73
2022/01/10 11:38:29;;;;;;;0.30;0.30;;;;;;;4.95;82.30;102353.34;5037150;28;20059;-73
2022/01/10 11:41:02;;;;;;;0.50;0.50;;;;;;;4.97;81.93;102361.22;5035478;28;20037;-73
2022/01/10 11:43:34;;;;;;;0.40;0.40;;;;;;;4.99;81.66;102357.06;5034316;28;20025;-75